sensor_id;sensor_type;location;lat;lon;timestamp;P1;durP1;ratioP1;P2;durP2;ratioP2
53927;SDS011;39837;47.630;18.822;2022-09-02T00:01:53;1.20;;;1.20;;
53927;SDS011;39837;47.630;18.822;2022-09-02T00:04:37;0.85;;;0.85;;
53927;SDS011;39837;47.630;18.822;2022-09-02T00:07:21;0.95;;;0.95;;
53927;SDS011;39837;47.630;18.822;2022-09-02T00:10:06;1.15;;;1.15;;
53927;SDS011;39837;47.630;18.822;2022-09-02T00:12:50;0.80;;;0.80;;
53927;SDS011;39837;47.630;18.822;2022-09-02T00:15:34;1.48;;;1.17;;
53927;SDS011;39837;47.630;18.822;2022-09-02T00:18:18;1.10;;;1.10;;
53927;SDS011;39837;47.630;18.822;2022-09-02T00:21:02;6.03;;;1.15;;
53927;SDS011;39837;47.630;18.822;2022-09-02T00:23:47;1.10;;;1.10;;
53927;SDS011;39837;47.630;18.822;2022-09-02T00:26:31;1.33;;;1.33;;
53927;SDS011;39837;47.630;18.822;2022-09-02T00:29:15;0.90;;;0.90;;
53927;SDS011;39837;47.630;18.822;2022-09-02T00:32:00;3.53;;;1.23;;
53927;SDS011;39837;47.630;18.822;2022-09-02T00:34:44;1.38;;;1.38;;
53927;SDS011;39837;47.630;18.822;2022-09-02T00:37:28;1.17;;;1.10;;
53927;SDS011;39837;47.630;18.822;2022-09-02T00:40:12;1.20;;;1.20;;
53927;SDS011;39837;47.630;18.822;2022-09-02T00:42:57;1.08;;;1.00;;
53927;SDS011;39837;47.630;18.822;2022-09-02T00:45:41;1.20;;;1.10;;
53927;SDS011;39837;47.630;18.822;2022-09-02T00:48:25;0.90;;;0.90;;
53927;SDS011;39837;47.630;18.822;2022-09-02T00:51:10;1.00;;;1.00;;
53927;SDS011;39837;47.630;18.822;2022-09-02T00:53:54;5.88;;;1.15;;
53927;SDS011;39837;47.630;18.822;2022-09-02T00:56:39;1.40;;;1.30;;
53927;SDS011;39837;47.630;18.822;2022-09-02T01:02:30;1.20;;;1.17;;
53927;SDS011;39837;47.630;18.822;2022-09-02T01:05:16;1.00;;;0.90;;
53927;SDS011;39837;47.630;18.822;2022-09-02T01:10:46;1.05;;;1.05;;
53927;SDS011;39837;47.630;18.822;2022-09-02T01:13:31;0.90;;;0.90;;
53927;SDS011;39837;47.630;18.822;2022-09-02T01:19:14;2.10;;;1.23;;
53927;SDS011;39837;47.630;18.822;2022-09-02T01:22:06;0.70;;;0.70;;
53927;SDS011;39837;47.630;18.822;2022-09-02T01:25:03;1.00;;;1.00;;
53927;SDS011;39837;47.630;18.822;2022-09-02T01:27:49;1.17;;;1.17;;
53927;SDS011;39837;47.630;18.822;2022-09-02T01:30:34;0.90;;;0.90;;
53927;SDS011;39837;47.630;18.822;2022-09-02T01:33:21;1.05;;;1.00;;
53927;SDS011;39837;47.630;18.822;2022-09-02T01:38:50;1.05;;;1.05;;
53927;SDS011;39837;47.630;18.822;2022-09-02T01:41:35;0.95;;;0.95;;
53927;SDS011;39837;47.630;18.822;2022-09-02T01:44:19;0.80;;;0.80;;
53927;SDS011;39837;47.630;18.822;2022-09-02T01:47:04;1.10;;;1.10;;
53927;SDS011;39837;47.630;18.822;2022-09-02T01:49:48;1.20;;;1.20;;
53927;SDS011;39837;47.630;18.822;2022-09-02T01:52:33;1.05;;;1.05;;
53927;SDS011;39837;47.630;18.822;2022-09-02T01:55:17;1.85;;;1.08;;
53927;SDS011;39837;47.630;18.822;2022-09-02T01:58:02;0.95;;;0.95;;
53927;SDS011;39837;47.630;18.822;2022-09-02T02:00:46;1.00;;;1.00;;
53927;SDS011;39837;47.630;18.822;2022-09-02T02:03:30;1.23;;;1.23;;
53927;SDS011;39837;47.630;18.822;2022-09-02T02:06:16;1.23;;;1.00;;
53927;SDS011;39837;47.630;18.822;2022-09-02T02:09:00;0.90;;;0.90;;
53927;SDS011;39837;47.630;18.822;2022-09-02T02:11:44;1.20;;;1.20;;
53927;SDS011;39837;47.630;18.822;2022-09-02T02:14:29;0.95;;;0.95;;
53927;SDS011;39837;47.630;18.822;2022-09-02T02:17:13;3.03;;;1.15;;
53927;SDS011;39837;47.630;18.822;2022-09-02T02:19:59;1.02;;;1.02;;
53927;SDS011;39837;47.630;18.822;2022-09-02T02:22:43;1.00;;;1.00;;
53927;SDS011;39837;47.630;18.822;2022-09-02T02:25:28;1.57;;;1.47;;
53927;SDS011;39837;47.630;18.822;2022-09-02T02:28:12;0.90;;;0.90;;
53927;SDS011;39837;47.630;18.822;2022-09-02T02:30:57;2.30;;;1.30;;
53927;SDS011;39837;47.630;18.822;2022-09-02T02:36:27;1.27;;;1.15;;
53927;SDS011;39837;47.630;18.822;2022-09-02T02:39:11;0.90;;;0.90;;
53927;SDS011;39837;47.630;18.822;2022-09-02T02:41:55;1.10;;;1.10;;
53927;SDS011;39837;47.630;18.822;2022-09-02T02:44:39;1.02;;;1.02;;
53927;SDS011;39837;47.630;18.822;2022-09-02T02:47:23;1.00;;;1.00;;
53927;SDS011;39837;47.630;18.822;2022-09-02T02:50:08;1.05;;;1.05;;
53927;SDS011;39837;47.630;18.822;2022-09-02T02:52:53;2.72;;;1.23;;
53927;SDS011;39837;47.630;18.822;2022-09-02T02:55:39;1.13;;;1.13;;
53927;SDS011;39837;47.630;18.822;2022-09-02T02:58:22;1.38;;;1.05;;
53927;SDS011;39837;47.630;18.822;2022-09-02T03:01:06;1.10;;;1.10;;
53927;SDS011;39837;47.630;18.822;2022-09-02T03:03:50;2.17;;;1.23;;
53927;SDS011;39837;47.630;18.822;2022-09-02T03:06:35;1.10;;;1.10;;
53927;SDS011;39837;47.630;18.822;2022-09-02T03:09:19;1.02;;;1.02;;
53927;SDS011;39837;47.630;18.822;2022-09-02T03:12:03;1.50;;;1.40;;
53927;SDS011;39837;47.630;18.822;2022-09-02T03:14:48;1.02;;;1.02;;
53927;SDS011;39837;47.630;18.822;2022-09-02T03:17:32;1.27;;;1.20;;
53927;SDS011;39837;47.630;18.822;2022-09-02T03:20:17;2.88;;;2.28;;
53927;SDS011;39837;47.630;18.822;2022-09-02T03:23:01;2.10;;;1.90;;
53927;SDS011;39837;47.630;18.822;2022-09-02T03:25:47;1.42;;;1.33;;
53927;SDS011;39837;47.630;18.822;2022-09-02T03:28:31;1.48;;;1.48;;
53927;SDS011;39837;47.630;18.822;2022-09-02T03:31:20;1.75;;;1.50;;
53927;SDS011;39837;47.630;18.822;2022-09-02T03:34:06;4.60;;;1.50;;
53927;SDS011;39837;47.630;18.822;2022-09-02T03:36:50;1.23;;;1.20;;
53927;SDS011;39837;47.630;18.822;2022-09-02T03:39:35;0.93;;;0.93;;
53927;SDS011;39837;47.630;18.822;2022-09-02T03:45:05;1.00;;;1.00;;
53927;SDS011;39837;47.630;18.822;2022-09-02T03:47:51;1.27;;;1.27;;
53927;SDS011;39837;47.630;18.822;2022-09-02T03:50:38;1.60;;;1.50;;
53927;SDS011;39837;47.630;18.822;2022-09-02T03:53:23;1.02;;;1.02;;
53927;SDS011;39837;47.630;18.822;2022-09-02T03:56:08;1.10;;;1.10;;
53927;SDS011;39837;47.630;18.822;2022-09-02T03:58:56;1.58;;;1.48;;
53927;SDS011;39837;47.630;18.822;2022-09-02T04:01:40;7.22;;;1.50;;
53927;SDS011;39837;47.630;18.822;2022-09-02T04:04:25;1.27;;;1.17;;
53927;SDS011;39837;47.630;18.822;2022-09-02T04:07:08;3.83;;;1.75;;
53927;SDS011;39837;47.630;18.822;2022-09-02T04:09:53;1.85;;;1.40;;
53927;SDS011;39837;47.630;18.822;2022-09-02T04:12:38;1.30;;;1.30;;
53927;SDS011;39837;47.630;18.822;2022-09-02T04:15:23;1.20;;;1.20;;
53927;SDS011;39837;47.630;18.822;2022-09-02T04:18:07;3.83;;;1.75;;
53927;SDS011;39837;47.630;18.822;2022-09-02T04:20:51;2.25;;;2.00;;
53927;SDS011;39837;47.630;18.822;2022-09-02T04:23:36;1.70;;;1.52;;
53927;SDS011;39837;47.630;18.822;2022-09-02T04:26:21;1.90;;;1.80;;
53927;SDS011;39837;47.630;18.822;2022-09-02T04:29:05;1.63;;;1.52;;
53927;SDS011;39837;47.630;18.822;2022-09-02T04:31:52;1.15;;;1.15;;
53927;SDS011;39837;47.630;18.822;2022-09-02T04:34:36;1.13;;;1.13;;
53927;SDS011;39837;47.630;18.822;2022-09-02T04:37:20;1.15;;;1.10;;
53927;SDS011;39837;47.630;18.822;2022-09-02T04:40:04;1.42;;;1.33;;
53927;SDS011;39837;47.630;18.822;2022-09-02T04:42:48;2.17;;;1.50;;
53927;SDS011;39837;47.630;18.822;2022-09-02T04:45:33;1.05;;;1.02;;
53927;SDS011;39837;47.630;18.822;2022-09-02T04:48:18;1.67;;;1.02;;
53927;SDS011;39837;47.630;18.822;2022-09-02T04:51:03;3.40;;;1.05;;
53927;SDS011;39837;47.630;18.822;2022-09-02T04:56:33;1.27;;;1.17;;
53927;SDS011;39837;47.630;18.822;2022-09-02T04:59:17;0.93;;;0.93;;
53927;SDS011;39837;47.630;18.822;2022-09-02T05:04:47;1.33;;;1.23;;
53927;SDS011;39837;47.630;18.822;2022-09-02T05:07:34;1.23;;;1.00;;
53927;SDS011;39837;47.630;18.822;2022-09-02T05:10:19;9.52;;;1.55;;
53927;SDS011;39837;47.630;18.822;2022-09-02T05:13:03;1.95;;;1.15;;
53927;SDS011;39837;47.630;18.822;2022-09-02T05:15:47;3.00;;;1.10;;
53927;SDS011;39837;47.630;18.822;2022-09-02T05:18:32;3.85;;;1.13;;
53927;SDS011;39837;47.630;18.822;2022-09-02T05:21:17;3.60;;;1.00;;
53927;SDS011;39837;47.630;18.822;2022-09-02T05:24:01;1.30;;;1.30;;
53927;SDS011;39837;47.630;18.822;2022-09-02T05:26:46;1.50;;;1.08;;
53927;SDS011;39837;47.630;18.822;2022-09-02T05:29:30;2.00;;;1.25;;
53927;SDS011;39837;47.630;18.822;2022-09-02T05:32:14;1.92;;;1.30;;
53927;SDS011;39837;47.630;18.822;2022-09-02T05:34:58;1.35;;;1.25;;
53927;SDS011;39837;47.630;18.822;2022-09-02T05:37:42;1.17;;;0.90;;
53927;SDS011;39837;47.630;18.822;2022-09-02T05:40:25;1.92;;;1.27;;
53927;SDS011;39837;47.630;18.822;2022-09-02T05:43:09;1.00;;;1.00;;
53927;SDS011;39837;47.630;18.822;2022-09-02T05:45:53;1.52;;;1.00;;
53927;SDS011;39837;47.630;18.822;2022-09-02T05:48:38;1.08;;;1.08;;
53927;SDS011;39837;47.630;18.822;2022-09-02T05:51:42;1.00;;;1.00;;
53927;SDS011;39837;47.630;18.822;2022-09-02T05:54:29;2.75;;;1.40;;
53927;SDS011;39837;47.630;18.822;2022-09-02T05:57:15;3.03;;;1.27;;
53927;SDS011;39837;47.630;18.822;2022-09-02T06:00:01;3.17;;;0.98;;
53927;SDS011;39837;47.630;18.822;2022-09-02T06:02:47;0.95;;;0.95;;
53927;SDS011;39837;47.630;18.822;2022-09-02T06:05:31;1.33;;;1.33;;
53927;SDS011;39837;47.630;18.822;2022-09-02T06:08:15;1.15;;;1.00;;
53927;SDS011;39837;47.630;18.822;2022-09-02T06:10:59;1.05;;;1.05;;
53927;SDS011;39837;47.630;18.822;2022-09-02T06:13:44;1.38;;;1.17;;
53927;SDS011;39837;47.630;18.822;2022-09-02T06:16:29;1.30;;;1.10;;
53927;SDS011;39837;47.630;18.822;2022-09-02T06:19:13;4.38;;;1.10;;
53927;SDS011;39837;47.630;18.822;2022-09-02T06:21:57;6.03;;;1.30;;
53927;SDS011;39837;47.630;18.822;2022-09-02T06:24:43;1.37;;;1.27;;
53927;SDS011;39837;47.630;18.822;2022-09-02T06:27:27;0.70;;;0.70;;
53927;SDS011;39837;47.630;18.822;2022-09-02T06:30:12;1.75;;;1.35;;
53927;SDS011;39837;47.630;18.822;2022-09-02T06:32:56;1.23;;;1.20;;
53927;SDS011;39837;47.630;18.822;2022-09-02T06:35:41;1.05;;;1.00;;
53927;SDS011;39837;47.630;18.822;2022-09-02T06:38:26;0.88;;;0.88;;
53927;SDS011;39837;47.630;18.822;2022-09-02T06:41:11;0.80;;;0.80;;
53927;SDS011;39837;47.630;18.822;2022-09-02T06:46:43;1.10;;;1.10;;
53927;SDS011;39837;47.630;18.822;2022-09-02T06:49:30;1.05;;;1.05;;
53927;SDS011;39837;47.630;18.822;2022-09-02T06:52:14;0.88;;;0.88;;
53927;SDS011;39837;47.630;18.822;2022-09-02T06:54:58;0.90;;;0.90;;
53927;SDS011;39837;47.630;18.822;2022-09-02T06:57:42;1.27;;;1.17;;
53927;SDS011;39837;47.630;18.822;2022-09-02T07:00:26;0.93;;;0.93;;
53927;SDS011;39837;47.630;18.822;2022-09-02T07:03:10;3.00;;;1.05;;
53927;SDS011;39837;47.630;18.822;2022-09-02T07:06:15;1.27;;;1.17;;
53927;SDS011;39837;47.630;18.822;2022-09-02T07:08:59;0.98;;;0.98;;
53927;SDS011;39837;47.630;18.822;2022-09-02T07:11:44;1.40;;;1.08;;
53927;SDS011;39837;47.630;18.822;2022-09-02T07:14:34;1.00;;;1.00;;
53927;SDS011;39837;47.630;18.822;2022-09-02T07:17:20;0.80;;;0.80;;
53927;SDS011;39837;47.630;18.822;2022-09-02T07:22:50;1.00;;;1.00;;
53927;SDS011;39837;47.630;18.822;2022-09-02T07:25:33;0.90;;;0.90;;
53927;SDS011;39837;47.630;18.822;2022-09-02T07:28:18;1.17;;;1.17;;
53927;SDS011;39837;47.630;18.822;2022-09-02T07:31:02;0.90;;;0.90;;
53927;SDS011;39837;47.630;18.822;2022-09-02T07:33:51;1.20;;;1.10;;
53927;SDS011;39837;47.630;18.822;2022-09-02T07:36:35;1.02;;;1.02;;
53927;SDS011;39837;47.630;18.822;2022-09-02T07:39:19;1.00;;;1.00;;
53927;SDS011;39837;47.630;18.822;2022-09-02T07:42:04;0.97;;;0.97;;
53927;SDS011;39837;47.630;18.822;2022-09-02T07:44:48;1.42;;;1.33;;
53927;SDS011;39837;47.630;18.822;2022-09-02T07:47:32;1.45;;;1.45;;
53927;SDS011;39837;47.630;18.822;2022-09-02T07:50:16;3.72;;;1.13;;
53927;SDS011;39837;47.630;18.822;2022-09-02T07:53:01;0.90;;;0.80;;
53927;SDS011;39837;47.630;18.822;2022-09-02T07:55:49;1.20;;;1.20;;
53927;SDS011;39837;47.630;18.822;2022-09-02T07:58:33;1.02;;;0.93;;
53927;SDS011;39837;47.630;18.822;2022-09-02T08:01:18;0.80;;;0.80;;
53927;SDS011;39837;47.630;18.822;2022-09-02T08:04:03;0.80;;;0.80;;
53927;SDS011;39837;47.630;18.822;2022-09-02T08:06:47;0.75;;;0.70;;
53927;SDS011;39837;47.630;18.822;2022-09-02T08:09:32;1.25;;;0.98;;
53927;SDS011;39837;47.630;18.822;2022-09-02T08:12:17;0.70;;;0.70;;
53927;SDS011;39837;47.630;18.822;2022-09-02T08:15:01;0.60;;;0.60;;
53927;SDS011;39837;47.630;18.822;2022-09-02T08:17:47;4.13;;;0.85;;
53927;SDS011;39837;47.630;18.822;2022-09-02T08:20:31;0.80;;;0.80;;
53927;SDS011;39837;47.630;18.822;2022-09-02T08:23:15;0.85;;;0.85;;
53927;SDS011;39837;47.630;18.822;2022-09-02T08:26:00;1.27;;;1.00;;
53927;SDS011;39837;47.630;18.822;2022-09-02T08:31:28;0.95;;;0.95;;
53927;SDS011;39837;47.630;18.822;2022-09-02T08:34:14;0.80;;;0.80;;
53927;SDS011;39837;47.630;18.822;2022-09-02T08:36:58;1.25;;;1.10;;
53927;SDS011;39837;47.630;18.822;2022-09-02T08:39:42;0.83;;;0.80;;
53927;SDS011;39837;47.630;18.822;2022-09-02T08:42:29;1.10;;;1.10;;
53927;SDS011;39837;47.630;18.822;2022-09-02T08:45:23;0.77;;;0.77;;
53927;SDS011;39837;47.630;18.822;2022-09-02T08:51:00;0.90;;;0.90;;
53927;SDS011;39837;47.630;18.822;2022-09-02T08:56:41;0.90;;;0.90;;
53927;SDS011;39837;47.630;18.822;2022-09-02T08:59:25;0.93;;;0.93;;
53927;SDS011;39837;47.630;18.822;2022-09-02T09:05:34;2.22;;;1.48;;
53927;SDS011;39837;47.630;18.822;2022-09-02T09:11:55;0.73;;;0.73;;
53927;SDS011;39837;47.630;18.822;2022-09-02T09:14:56;0.70;;;0.70;;
53927;SDS011;39837;47.630;18.822;2022-09-02T09:17:55;1.45;;;0.73;;
53927;SDS011;39837;47.630;18.822;2022-09-02T09:20:41;3.38;;;1.10;;
53927;SDS011;39837;47.630;18.822;2022-09-02T09:23:30;0.93;;;0.93;;
53927;SDS011;39837;47.630;18.822;2022-09-02T09:26:17;0.75;;;0.75;;
53927;SDS011;39837;47.630;18.822;2022-09-02T09:29:10;1.85;;;1.00;;
53927;SDS011;39837;47.630;18.822;2022-09-02T09:31:57;1.42;;;1.33;;
53927;SDS011;39837;47.630;18.822;2022-09-02T09:35:03;0.90;;;0.90;;
53927;SDS011;39837;47.630;18.822;2022-09-02T09:37:50;2.75;;;1.08;;
53927;SDS011;39837;47.630;18.822;2022-09-02T09:40:35;0.60;;;0.60;;
53927;SDS011;39837;47.630;18.822;2022-09-02T09:43:20;0.82;;;0.82;;
53927;SDS011;39837;47.630;18.822;2022-09-02T09:46:26;1.75;;;1.33;;
53927;SDS011;39837;47.630;18.822;2022-09-02T09:49:18;0.90;;;0.90;;
53927;SDS011;39837;47.630;18.822;2022-09-02T09:52:08;1.10;;;0.77;;
53927;SDS011;39837;47.630;18.822;2022-09-02T09:55:12;0.70;;;0.70;;
53927;SDS011;39837;47.630;18.822;2022-09-02T09:58:07;2.00;;;0.85;;
53927;SDS011;39837;47.630;18.822;2022-09-02T10:00:53;5.03;;;0.98;;
53927;SDS011;39837;47.630;18.822;2022-09-02T10:03:56;0.80;;;0.80;;
53927;SDS011;39837;47.630;18.822;2022-09-02T10:06:45;2.38;;;0.98;;
53927;SDS011;39837;47.630;18.822;2022-09-02T10:09:34;1.40;;;0.82;;
53927;SDS011;39837;47.630;18.822;2022-09-02T10:12:29;7.63;;;1.10;;
53927;SDS011;39837;47.630;18.822;2022-09-02T10:15:18;4.47;;;1.88;;
53927;SDS011;39837;47.630;18.822;2022-09-02T10:21:04;2.10;;;1.05;;
53927;SDS011;39837;47.630;18.822;2022-09-02T10:24:03;1.90;;;1.80;;
53927;SDS011;39837;47.630;18.822;2022-09-02T10:30:20;1.35;;;1.17;;
53927;SDS011;39837;47.630;18.822;2022-09-02T10:36:01;0.82;;;0.82;;
53927;SDS011;39837;47.630;18.822;2022-09-02T10:38:51;4.03;;;1.27;;
53927;SDS011;39837;47.630;18.822;2022-09-02T10:41:41;3.40;;;1.30;;
53927;SDS011;39837;47.630;18.822;2022-09-02T10:53:53;1.23;;;1.10;;
53927;SDS011;39837;47.630;18.822;2022-09-02T10:57:06;3.35;;;1.30;;
53927;SDS011;39837;47.630;18.822;2022-09-02T11:06:24;0.98;;;0.98;;
53927;SDS011;39837;47.630;18.822;2022-09-02T11:09:26;0.93;;;0.93;;
53927;SDS011;39837;47.630;18.822;2022-09-02T11:12:28;1.42;;;1.40;;
53927;SDS011;39837;47.630;18.822;2022-09-02T11:15:18;1.95;;;1.20;;
53927;SDS011;39837;47.630;18.822;2022-09-02T11:18:12;2.20;;;1.35;;
53927;SDS011;39837;47.630;18.822;2022-09-02T11:21:07;1.00;;;1.00;;
53927;SDS011;39837;47.630;18.822;2022-09-02T11:24:02;1.02;;;1.02;;
53927;SDS011;39837;47.630;18.822;2022-09-02T11:26:56;1.15;;;1.15;;
53927;SDS011;39837;47.630;18.822;2022-09-02T11:35:39;1.25;;;1.15;;
53927;SDS011;39837;47.630;18.822;2022-09-02T11:41:31;0.90;;;0.90;;
53927;SDS011;39837;47.630;18.822;2022-09-02T11:44:44;2.05;;;1.15;;
53927;SDS011;39837;47.630;18.822;2022-09-02T11:50:44;6.13;;;1.20;;
53927;SDS011;39837;47.630;18.822;2022-09-02T11:53:41;1.48;;;1.30;;
53927;SDS011;39837;47.630;18.822;2022-09-02T11:56:28;1.30;;;1.30;;
53927;SDS011;39837;47.630;18.822;2022-09-02T11:59:21;2.30;;;1.35;;
53927;SDS011;39837;47.630;18.822;2022-09-02T12:11:35;1.10;;;1.10;;
53927;SDS011;39837;47.630;18.822;2022-09-02T12:17:31;1.10;;;1.10;;
53927;SDS011;39837;47.630;18.822;2022-09-02T12:34:53;1.27;;;1.13;;
53927;SDS011;39837;47.630;18.822;2022-09-02T12:37:49;0.93;;;0.93;;
53927;SDS011;39837;47.630;18.822;2022-09-02T12:40:53;1.48;;;1.20;;
53927;SDS011;39837;47.630;18.822;2022-09-02T12:49:27;1.00;;;1.00;;
53927;SDS011;39837;47.630;18.822;2022-09-02T12:55:26;5.10;;;1.45;;
53927;SDS011;39837;47.630;18.822;2022-09-02T12:58:12;1.75;;;1.20;;
53927;SDS011;39837;47.630;18.822;2022-09-02T13:01:06;1.02;;;1.02;;
53927;SDS011;39837;47.630;18.822;2022-09-02T13:04:06;1.20;;;1.20;;
53927;SDS011;39837;47.630;18.822;2022-09-02T13:07:05;1.73;;;1.63;;
53927;SDS011;39837;47.630;18.822;2022-09-02T13:16:43;0.93;;;0.93;;
53927;SDS011;39837;47.630;18.822;2022-09-02T13:25:55;1.02;;;1.02;;
53927;SDS011;39837;47.630;18.822;2022-09-02T13:32:14;2.78;;;2.50;;
53927;SDS011;39837;47.630;18.822;2022-09-02T13:35:06;1.58;;;1.42;;
53927;SDS011;39837;47.630;18.822;2022-09-02T13:37:52;1.17;;;1.13;;
53927;SDS011;39837;47.630;18.822;2022-09-02T13:40:39;1.85;;;1.20;;
53927;SDS011;39837;47.630;18.822;2022-09-02T13:43:24;1.13;;;1.13;;
53927;SDS011;39837;47.630;18.822;2022-09-02T13:46:09;2.83;;;1.48;;
53927;SDS011;39837;47.630;18.822;2022-09-02T13:48:53;1.70;;;1.60;;
53927;SDS011;39837;47.630;18.822;2022-09-02T13:51:40;1.60;;;1.50;;
53927;SDS011;39837;47.630;18.822;2022-09-02T13:54:27;1.30;;;1.30;;
53927;SDS011;39837;47.630;18.822;2022-09-02T13:57:12;1.85;;;1.55;;
53927;SDS011;39837;47.630;18.822;2022-09-02T14:00:01;1.42;;;1.42;;
53927;SDS011;39837;47.630;18.822;2022-09-02T14:02:53;1.48;;;1.38;;
53927;SDS011;39837;47.630;18.822;2022-09-02T14:05:40;1.30;;;1.30;;
53927;SDS011;39837;47.630;18.822;2022-09-02T14:08:27;1.40;;;1.30;;
53927;SDS011;39837;47.630;18.822;2022-09-02T14:11:15;6.40;;;1.70;;
53927;SDS011;39837;47.630;18.822;2022-09-02T14:13:59;2.33;;;1.50;;
53927;SDS011;39837;47.630;18.822;2022-09-02T14:16:45;1.75;;;1.50;;
53927;SDS011;39837;47.630;18.822;2022-09-02T14:19:29;1.63;;;1.52;;
53927;SDS011;39837;47.630;18.822;2022-09-02T14:22:26;1.33;;;1.30;;
53927;SDS011;39837;47.630;18.822;2022-09-02T14:25:15;1.30;;;1.23;;
53927;SDS011;39837;47.630;18.822;2022-09-02T14:27:59;1.55;;;1.30;;
53927;SDS011;39837;47.630;18.822;2022-09-02T14:30:52;1.40;;;1.40;;
53927;SDS011;39837;47.630;18.822;2022-09-02T14:33:51;1.10;;;1.02;;
53927;SDS011;39837;47.630;18.822;2022-09-02T14:36:36;1.20;;;1.20;;
53927;SDS011;39837;47.630;18.822;2022-09-02T14:39:21;1.95;;;1.50;;
53927;SDS011;39837;47.630;18.822;2022-09-02T14:42:05;1.88;;;1.20;;
53927;SDS011;39837;47.630;18.822;2022-09-02T14:44:49;5.78;;;1.30;;
53927;SDS011;39837;47.630;18.822;2022-09-02T14:47:35;1.50;;;1.40;;
53927;SDS011;39837;47.630;18.822;2022-09-02T14:50:23;1.30;;;1.20;;
53927;SDS011;39837;47.630;18.822;2022-09-02T14:53:17;2.83;;;1.52;;
53927;SDS011;39837;47.630;18.822;2022-09-02T14:56:04;1.05;;;1.02;;
53927;SDS011;39837;47.630;18.822;2022-09-02T15:01:36;2.15;;;1.40;;
53927;SDS011;39837;47.630;18.822;2022-09-02T15:04:22;1.30;;;1.30;;
53927;SDS011;39837;47.630;18.822;2022-09-02T15:07:06;1.35;;;1.25;;
53927;SDS011;39837;47.630;18.822;2022-09-02T15:09:50;0.95;;;0.95;;
53927;SDS011;39837;47.630;18.822;2022-09-02T15:12:41;1.30;;;1.30;;
53927;SDS011;39837;47.630;18.822;2022-09-02T15:15:30;2.10;;;1.42;;
53927;SDS011;39837;47.630;18.822;2022-09-02T15:18:14;1.00;;;1.00;;
53927;SDS011;39837;47.630;18.822;2022-09-02T15:20:58;3.33;;;1.25;;
53927;SDS011;39837;47.630;18.822;2022-09-02T15:23:42;1.00;;;1.00;;
53927;SDS011;39837;47.630;18.822;2022-09-02T15:26:26;7.40;;;1.40;;
53927;SDS011;39837;47.630;18.822;2022-09-02T15:29:10;1.40;;;1.38;;
53927;SDS011;39837;47.630;18.822;2022-09-02T15:34:40;1.55;;;1.45;;
53927;SDS011;39837;47.630;18.822;2022-09-02T15:37:24;1.35;;;1.33;;
53927;SDS011;39837;47.630;18.822;2022-09-02T15:40:10;1.70;;;1.60;;
53927;SDS011;39837;47.630;18.822;2022-09-02T15:42:53;1.65;;;1.55;;
53927;SDS011;39837;47.630;18.822;2022-09-02T15:45:48;2.00;;;1.90;;
53927;SDS011;39837;47.630;18.822;2022-09-02T15:48:32;3.55;;;2.22;;
53927;SDS011;39837;47.630;18.822;2022-09-02T15:51:17;2.22;;;1.67;;
53927;SDS011;39837;47.630;18.822;2022-09-02T15:54:03;1.30;;;1.27;;
53927;SDS011;39837;47.630;18.822;2022-09-02T15:56:55;14.43;;;1.63;;
53927;SDS011;39837;47.630;18.822;2022-09-02T15:59:41;1.33;;;1.20;;
53927;SDS011;39837;47.630;18.822;2022-09-02T16:02:25;1.33;;;1.27;;
53927;SDS011;39837;47.630;18.822;2022-09-02T16:05:09;1.42;;;1.30;;
53927;SDS011;39837;47.630;18.822;2022-09-02T16:07:54;1.35;;;1.23;;
53927;SDS011;39837;47.630;18.822;2022-09-02T16:10:38;1.30;;;1.30;;
53927;SDS011;39837;47.630;18.822;2022-09-02T16:13:22;1.27;;;1.27;;
53927;SDS011;39837;47.630;18.822;2022-09-02T16:16:07;1.52;;;1.40;;
53927;SDS011;39837;47.630;18.822;2022-09-02T16:21:36;9.90;;;1.45;;
53927;SDS011;39837;47.630;18.822;2022-09-02T16:24:23;2.97;;;1.48;;
53927;SDS011;39837;47.630;18.822;2022-09-02T16:27:07;2.30;;;1.88;;
53927;SDS011;39837;47.630;18.822;2022-09-02T16:29:52;2.17;;;1.65;;
53927;SDS011;39837;47.630;18.822;2022-09-02T16:32:36;1.73;;;1.70;;
53927;SDS011;39837;47.630;18.822;2022-09-02T16:35:21;2.35;;;1.33;;
53927;SDS011;39837;47.630;18.822;2022-09-02T16:38:05;1.73;;;1.63;;
53927;SDS011;39837;47.630;18.822;2022-09-02T16:40:53;2.38;;;2.03;;
53927;SDS011;39837;47.630;18.822;2022-09-02T16:43:38;1.42;;;1.42;;
53927;SDS011;39837;47.630;18.822;2022-09-02T16:46:22;3.17;;;1.52;;
53927;SDS011;39837;47.630;18.822;2022-09-02T16:49:08;5.32;;;1.50;;
53927;SDS011;39837;47.630;18.822;2022-09-02T16:51:53;1.85;;;1.75;;
53927;SDS011;39837;47.630;18.822;2022-09-02T16:54:37;1.58;;;1.52;;
53927;SDS011;39837;47.630;18.822;2022-09-02T16:57:22;4.03;;;2.25;;
53927;SDS011;39837;47.630;18.822;2022-09-02T17:00:06;14.13;;;2.47;;
53927;SDS011;39837;47.630;18.822;2022-09-02T17:02:51;2.90;;;2.27;;
53927;SDS011;39837;47.630;18.822;2022-09-02T17:05:35;1.80;;;1.70;;
53927;SDS011;39837;47.630;18.822;2022-09-02T17:08:18;3.08;;;2.08;;
53927;SDS011;39837;47.630;18.822;2022-09-02T17:11:09;5.05;;;2.28;;
53927;SDS011;39837;47.630;18.822;2022-09-02T17:13:57;3.38;;;2.15;;
53927;SDS011;39837;47.630;18.822;2022-09-02T17:16:46;3.88;;;2.05;;
53927;SDS011;39837;47.630;18.822;2022-09-02T17:19:32;3.25;;;2.72;;
53927;SDS011;39837;47.630;18.822;2022-09-02T17:22:16;2.88;;;2.30;;
53927;SDS011;39837;47.630;18.822;2022-09-02T17:25:00;1.77;;;1.67;;
53927;SDS011;39837;47.630;18.822;2022-09-02T17:27:44;5.13;;;2.15;;
53927;SDS011;39837;47.630;18.822;2022-09-02T17:30:28;9.93;;;2.28;;
53927;SDS011;39837;47.630;18.822;2022-09-02T17:33:12;4.53;;;1.95;;
53927;SDS011;39837;47.630;18.822;2022-09-02T17:35:56;3.95;;;2.15;;
53927;SDS011;39837;47.630;18.822;2022-09-02T17:38:41;4.57;;;2.95;;
53927;SDS011;39837;47.630;18.822;2022-09-02T17:41:25;5.07;;;2.50;;
53927;SDS011;39837;47.630;18.822;2022-09-02T17:44:33;2.42;;;2.22;;
53927;SDS011;39837;47.630;18.822;2022-09-02T17:47:19;3.75;;;2.25;;
53927;SDS011;39837;47.630;18.822;2022-09-02T17:50:04;2.25;;;1.88;;
53927;SDS011;39837;47.630;18.822;2022-09-02T17:52:48;3.55;;;2.33;;
53927;SDS011;39837;47.630;18.822;2022-09-02T17:55:32;4.50;;;2.05;;
53927;SDS011;39837;47.630;18.822;2022-09-02T17:58:17;2.50;;;2.08;;
53927;SDS011;39837;47.630;18.822;2022-09-02T18:01:02;8.60;;;2.05;;
53927;SDS011;39837;47.630;18.822;2022-09-02T18:06:52;2.40;;;2.20;;
53927;SDS011;39837;47.630;18.822;2022-09-02T18:09:38;3.47;;;2.42;;
53927;SDS011;39837;47.630;18.822;2022-09-02T18:12:22;5.18;;;2.72;;
53927;SDS011;39837;47.630;18.822;2022-09-02T18:15:07;2.38;;;1.77;;
53927;SDS011;39837;47.630;18.822;2022-09-02T18:17:52;4.43;;;2.33;;
53927;SDS011;39837;47.630;18.822;2022-09-02T18:20:40;2.58;;;2.38;;
53927;SDS011;39837;47.630;18.822;2022-09-02T18:45:27;2.05;;;1.95;;
53927;SDS011;39837;47.630;18.822;2022-09-02T18:48:18;2.10;;;2.00;;
53927;SDS011;39837;47.630;18.822;2022-09-02T18:51:26;2.20;;;2.10;;
53927;SDS011;39837;47.630;18.822;2022-09-02T18:54:33;2.25;;;2.15;;
53927;SDS011;39837;47.630;18.822;2022-09-02T18:57:23;3.90;;;2.55;;
53927;SDS011;39837;47.630;18.822;2022-09-02T19:00:08;2.42;;;2.33;;
53927;SDS011;39837;47.630;18.822;2022-09-02T19:02:58;2.40;;;2.25;;
53927;SDS011;39837;47.630;18.822;2022-09-02T19:05:47;2.17;;;2.08;;
53927;SDS011;39837;47.630;18.822;2022-09-02T19:08:32;2.05;;;1.95;;
53927;SDS011;39837;47.630;18.822;2022-09-02T19:11:17;2.35;;;2.15;;
53927;SDS011;39837;47.630;18.822;2022-09-02T19:14:08;2.03;;;1.92;;
53927;SDS011;39837;47.630;18.822;2022-09-02T19:17:11;9.45;;;2.65;;